Latest Coastal Weather Observations for Moorabbin Airport

IDV60701

Issued at 9:32 pm EDT Wednesday 7 December 2022 (issued every 10 minutes, with the page automatically refreshed every 10 minutes)

About coastal observations | Map of coastal stations | Coastal observations for VIC | Marine services | Other Formats
Station Details ID: 086077 Name: MOORABBIN AIRPORT Lat: -37.98 Lon: 145.10 Height: 12.1 m
Data from the previous 72 hours. | See also: Recent months at Moorabbin Airport
Date/Time
EDT
Wind Sea
Height
m
Swell Vis
km
Cloud Weather Temp
°C
Press
MSL
hPa
Rain since
9am
mm
Dir  Spd
kts
Gust
kts
Height
m
Period
s
Dir
07/09:30pm SW 16 26 - - - - 10 Partly cloudy - 13.3 1008.2 2.2
07/09:01pm SW 20 31 - - - - 8 Partly cloudy - 12.4 1007.8 2.2
07/09:00pm SW 19 28 - - - - 9 Cloudy Recent precip. 12.5 1007.7 2.0
07/08:30pm SW 20 32 - - - - 7 Partly cloudy - 12.7 1007.1 1.6
07/08:26pm SW 21 32 - - - - 6 Partly cloudy - 12.7 1007.1 1.4
07/08:22pm SW 20 30 - - - - 8 Partly cloudy - 12.8 1007.0 1.4
07/08:15pm WSW 15 25 - - - - 10 Partly cloudy - 14.1 1006.6 1.0
07/08:00pm W 14 22 - - - - 9 Partly cloudy - 13.6 1006.3 1.0
07/07:57pm W 13 22 - - - - 8 Partly cloudy - 13.6 1006.3 0.8
07/07:47pm W 18 28 - - - - 5 Partly cloudy - 13.6 1006.0 0.6
07/07:46pm W 19 28 - - - - 5 Partly cloudy - 13.6 1006.0 0.6
07/07:38pm WSW 15 27 - - - - 10 Partly cloudy - 14.9 1005.8 0.2
07/07:30pm SW 11 17 - - - - 10 Partly cloudy - 16.1 1005.4 0.0
07/07:00pm SW 10 16 - - - - 10 Partly cloudy - 16.3 1004.8 0.0
07/06:30pm SW 11 16 - - - - 10 Partly cloudy - 17.0 1004.5 0.0
07/06:00pm SSW 11 15 - - - - 10 - - 18.0 1004.3 0.0
07/05:30pm SSW 13 18 - - - - 10 - - 17.7 1004.5 0.0
07/05:00pm SSW 14 19 - - - - 10 - - 17.3 1004.6 0.0
07/04:30pm SSW 15 22 - - - - 10 - - 17.9 1004.6 0.0
07/04:00pm SSW 15 21 - - - - 10 Partly cloudy - 17.6 1004.6 0.0
07/03:30pm SSW 14 22 - - - - 10 Cloudy - 16.5 1004.6 0.0
07/03:00pm SSW 15 20 - - - - 10 Partly cloudy - 17.0 1004.4 0.0
07/02:30pm SSW 13 18 - - - - 10 Partly cloudy - 17.4 1004.4 0.0
07/02:00pm SSW 11 16 - - - - 10 - - 18.0 1004.6 0.0
07/01:30pm SSW 13 18 - - - - 10 - - 18.5 1004.7 0.0
07/01:00pm SW 11 15 - - - - 10 Partly cloudy - 19.1 1004.5 0.0
07/12:30pm SW 13 18 - - - - 10 Partly cloudy - 18.3 1004.6 0.0
07/12:00pm SW 12 17 - - - - 10 Mostly cloudy - 17.8 1004.8 0.0
07/11:30am SW 11 15 - - - - 10 Partly cloudy - 17.3 1004.6 0.0
07/11:00am SW 10 15 - - - - 10 Cloudy - 18.2 1004.3 0.0
07/10:30am SW 10 13 - - - - 10 Partly cloudy - 16.7 1004.3 0.0
07/10:00am WSW 7 11 - - - - 10 Partly cloudy - 17.0 1004.3 0.0
07/09:30am WSW 7 9 - - - - 10 Cloudy - 16.7 1004.3 0.0
07/09:00am W 7 11 - - - - 10 Cloudy - 16.3 1004.4 0.0
07/08:30am NW 5 6 - - - - 10 Cloudy - 16.2 1004.2 0.0
07/08:00am NW 5 6 - - - - 10 Partly cloudy - 16.0 1004.0 0.0
07/07:30am N 2 4 - - - - 10 - - 14.9 1003.9 0.0
07/07:00am CALM 0 0 - - - - 10 - - 13.7 1003.9 0.0
07/06:30am NNE 1 3 - - - - 10 - - 12.5 1003.9 0.0
07/06:00am N 3 3 - - - - 10 - - 12.4 1003.8 0.0
07/05:30am N 4 5 - - - - 10 Partly cloudy - 12.5 1003.8 0.0
07/05:00am N 4 4 - - - - 10 Cloudy - 13.3 1003.7 0.0
07/04:30am N 3 5 - - - - 10 Cloudy - 13.2 1003.7 0.0
07/04:00am N 3 3 - - - - 10 Cloudy - 12.9 1004.1 0.0
07/03:30am NNE 3 4 - - - - 10 - - 12.6 1004.3 0.0
07/03:00am CALM 0 0 - - - - 10 Cloudy - 12.5 1004.7 0.0
07/02:30am CALM 0 0 - - - - 10 - - 12.3 1005.0 0.0
07/02:00am CALM 0 0 - - - - 10 - - 12.0 1005.5 0.0
07/01:30am SSE 1 5 - - - - 10 - - 12.0 1005.6 0.0
07/01:00am SE 3 6 - - - - 10 - - 12.6 1005.9 0.0
07/12:30am SE 6 7 - - - - 10 - - 12.2 1006.1 0.0
07/12:00am SE 5 7 - - - - 10 Mostly clear - 12.0 1006.6 0.0
 
Date/Time
EDT
Wind Sea
Height
m
Swell Vis
km
Cloud Weather Temp
°C
Press
MSL
hPa
Rain since
9am
mm
Dir  Spd
kts
Gust
kts
Height
m
Period
s
Dir
06/11:30pm SSE 7 8 - - - - 10 - - 12.7 1007.1 0.0
06/11:00pm SE 7 11 - - - - 10 - - 12.9 1007.2 0.0
06/10:30pm SE 7 10 - - - - 10 - - 13.3 1007.5 0.0
06/10:00pm SE 8 10 - - - - 10 - - 13.7 1007.8 0.0
06/09:30pm SE 9 11 - - - - 10 - - 14.4 1007.6 0.0
06/09:00pm SE 9 11 - - - - 10 - - 14.5 1007.5 0.0
06/08:30pm SE 8 11 - - - - 10 - - 15.4 1007.6 0.0
06/08:00pm SE 10 13 - - - - 10 - - 16.5 1007.5 0.0
06/07:30pm ESE 10 13 - - - - 10 - - 17.4 1007.6 0.0
06/07:00pm SE 12 16 - - - - 10 - - 18.3 1007.5 0.0
06/06:30pm SSW 10 14 - - - - 10 - - 18.6 1007.6 0.0
06/06:00pm SSW 11 15 - - - - 10 - - 18.8 1007.6 0.0
06/05:30pm SSW 12 17 - - - - 10 - - 19.5 1007.8 0.0
06/05:00pm SSW 13 17 - - - - 10 - - 19.5 1008.2 0.0
06/04:30pm SW 12 16 - - - - 10 - - 19.8 1008.2 0.0
06/04:00pm SW 13 16 - - - - 10 - - 19.1 1008.5 0.0
06/03:30pm SW 11 14 - - - - 10 - - 19.1 1008.7 0.0
06/03:00pm SW 11 15 - - - - 10 - - 18.9 1009.0 0.0
06/02:30pm SSW 12 17 - - - - 10 - - 18.8 1009.3 0.0
06/02:00pm SW 11 17 - - - - 10 Partly cloudy - 19.2 1009.8 0.0
06/01:30pm S 9 14 - - - - 10 Partly cloudy - 19.0 1009.9 0.0
06/01:00pm S 9 11 - - - - 10 Partly cloudy - 18.5 1010.4 0.0
06/12:30pm SE 7 12 - - - - 10 Partly cloudy - 18.2 1010.7 0.0
06/12:00pm SE 11 14 - - - - 10 Mostly cloudy - 18.6 1010.9 0.0
06/11:30am SSE 9 14 - - - - 10 Partly cloudy - 17.6 1010.9 0.0
06/11:00am SSE 12 17 - - - - 10 Partly cloudy - 17.3 1011.1 0.0
06/10:30am SE 9 13 - - - - 10 Partly cloudy - 16.7 1011.3 0.0
06/10:00am ESE 9 14 - - - - 10 Partly cloudy - 16.2 1011.4 0.0
06/09:30am ESE 9 12 - - - - 10 Partly cloudy - 15.0 1012.0 0.0
06/09:00am SE 9 11 - - - - 10 Cloudy - 13.8 1012.2 0.2
06/08:47am SE 8 11 - - - - 10 Partly cloudy - 13.3 1012.4 0.2
06/08:30am ESE 9 15 - - - - 3 Partly cloudy - 12.9 1012.4 0.2
06/08:24am SE 11 15 - - - - 5 Partly cloudy - 12.8 1012.4 0.2
06/08:22am ESE 11 15 - - - - 6 Partly cloudy - 12.8 1012.3 0.2
06/08:19am ESE 11 15 - - - - 8 Partly cloudy - 12.8 1012.3 0.2
06/08:00am SE 10 13 - - - - 5 Partly cloudy - 13.3 1012.1 0.2
06/07:59am SE 10 13 - - - - 5 Partly cloudy - 13.3 1012.1 0.2
06/07:58am SE 10 13 - - - - 6 Partly cloudy - 13.5 1012.1 0.2
06/07:30am SE 9 12 - - - - 10 Partly cloudy - 13.2 1011.7 0.2
06/07:25am SE 9 11 - - - - 10 Partly cloudy - 13.3 1011.6 0.2
06/07:08am SE 8 11 - - - - 5 Partly cloudy - 12.9 1011.6 0.2
06/07:00am SE 10 12 - - - - 10 Partly cloudy - 12.9 1011.5 0.0
06/06:30am SE 7 11 - - - - 10 Partly cloudy - 13.1 1011.2 0.0
06/06:00am SE 7 10 - - - - 10 Mostly cloudy - 13.0 1011.0 0.0
06/05:30am SSE 8 11 - - - - 10 Partly cloudy - 13.5 1010.9 0.0
06/05:12am SSE 9 12 - - - - 10 Partly cloudy - 13.6 1010.9 0.0
06/05:00am SSE 8 11 - - - - 10 Partly cloudy - 13.7 1010.9 0.0
06/04:30am S 7 9 - - - - 10 Partly cloudy - 13.6 1011.0 0.0
06/04:00am S 7 11 - - - - 10 Cloudy - 13.6 1010.9 0.0
06/03:45am S 5 7 - - - - 10 Partly cloudy - 13.7 1010.9 0.0
06/03:36am SSE 5 7 - - - - 10 Partly cloudy - 13.6 1010.8 0.0
06/03:30am SSE 5 8 - - - - 10 Partly cloudy - 13.6 1010.7 0.0
06/03:03am SE 6 8 - - - - 10 Partly cloudy - 13.6 1010.8 0.0
06/03:00am SE 6 9 - - - - 10 Cloudy - 13.6 1010.8 0.0
06/02:46am SE 9 11 - - - - 5 Partly cloudy - 13.8 1010.8 0.0
06/02:30am SSE 11 17 - - - - 10 Partly cloudy - 14.1 1010.8 0.0
06/02:00am SSW 11 18 - - - - 9 Partly cloudy - 15.0 1010.9 0.0
06/01:30am SSW 10 15 - - - - 8 Partly cloudy - 14.8 1011.1 0.0
06/01:00am SSW 12 16 - - - - 8 Partly cloudy - 14.7 1011.6 0.0
06/12:30am SSW 14 20 - - - - 8 Cloudy - 14.5 1012.0 0.0
06/12:00am SSW 13 19 - - - - 8 Cloudy - 14.4 1012.3 0.0
 
Date/Time
EDT
Wind Sea
Height
m
Swell Vis
km
Cloud Weather Temp
°C
Press
MSL
hPa
Rain since
9am
mm
Dir  Spd
kts
Gust
kts
Height
m
Period
s
Dir
05/11:30pm SSW 14 21 - - - - 8 Cloudy - 14.3 1012.5 0.0
05/11:00pm SSW 15 24 - - - - 9 Cloudy - 14.1 1012.8 0.0
05/10:33pm SSW 15 26 - - - - 10 Cloudy - 14.0 1013.0 0.0
05/10:30pm SSW 14 21 - - - - 10 Cloudy - 14.1 1013.0 0.0
05/10:00pm SW 15 23 - - - - 10 Partly cloudy - 14.0 1013.0 0.0
05/09:30pm SW 17 24 - - - - 10 Partly cloudy - 13.9 1012.9 0.0
05/09:00pm SW 18 26 - - - - 10 Cloudy - 13.9 1012.7 0.0
05/08:54pm SW 17 26 - - - - 10 Partly cloudy - 13.9 1012.7 0.0
05/08:34pm SSW 18 28 - - - - 10 Partly cloudy - 14.1 1012.7 0.0
05/08:30pm SSW 18 27 - - - - 10 Partly cloudy - 14.2 1012.7 0.0
05/08:04pm SSW 17 27 - - - - 9 Cloudy - 14.4 1012.5 0.0
05/08:00pm SW 17 25 - - - - 9 Partly cloudy - 14.4 1012.5 0.0
05/07:30pm SW 16 23 - - - - 7 Partly cloudy - 14.1 1012.4 0.0
05/07:00pm SW 17 26 - - - - 6 Partly cloudy - 14.2 1012.1 0.0
05/06:54pm SW 16 26 - - - - 9 Partly cloudy - 14.7 1012.0 0.0
05/06:30pm SW 17 26 - - - - 9 Partly cloudy - 14.9 1011.9 0.0
05/06:06pm SW 16 28 - - - - 8 Partly cloudy - 14.3 1011.8 0.0
05/06:00pm SW 17 24 - - - - 6 Cloudy - 14.1 1011.8 0.0
05/05:30pm SW 19 25 - - - - 10 Partly cloudy - 15.4 1011.6 0.0
05/05:00pm SW 17 24 - - - - 10 Partly cloudy - 16.1 1011.5 0.0
05/04:51pm SW 17 27 - - - - 10 Partly cloudy - 15.7 1011.5 0.0
05/04:30pm SW 17 26 - - - - 10 Partly cloudy - 16.5 1011.5 0.0
05/04:00pm SW 18 28 - - - - 10 Partly cloudy - 16.7 1011.4 0.0
05/03:30pm SW 20 31 - - - - 10 Partly cloudy - 16.6 1011.4 0.0
05/03:00pm SW 15 25 - - - - 10 Cloudy - 16.9 1011.3 0.0
05/02:51pm SW 16 26 - - - - 10 Partly cloudy - 16.6 1011.4 0.0
05/02:30pm SW 17 26 - - - - 10 Partly cloudy - 16.7 1011.6 0.0
05/02:00pm SW 16 24 - - - - 10 Partly cloudy - 17.0 1011.5 0.0
05/01:31pm SW 15 26 - - - - 10 Partly cloudy - 16.8 1011.5 0.0
05/01:30pm SW 15 22 - - - - 10 Partly cloudy - 16.9 1011.5 0.0
05/01:00pm SW 15 22 - - - - 10 Partly cloudy - 16.5 1011.6 0.0
05/12:30pm SW 16 23 - - - - 10 Partly cloudy - 16.6 1011.3 0.0
05/12:00pm SW 16 22 - - - - 10 Cloudy - 16.7 1011.0 0.0
05/11:34am SW 16 26 - - - - 10 Partly cloudy - 16.7 1010.7 0.0
05/11:30am SSW 16 24 - - - - 10 Partly cloudy - 17.0 1010.6 0.0
05/11:16am SW 15 25 - - - - 10 Partly cloudy - 16.2 1010.5 0.0
05/11:00am SW 16 25 - - - - 10 Partly cloudy - 16.0 1010.5 0.0
05/10:30am SW 15 23 - - - - 10 Partly cloudy - 15.6 1010.1 0.0
05/10:00am SW 17 23 - - - - 8 Partly cloudy - 15.3 1009.9 0.0
05/09:30am SW 12 19 - - - - 9 Partly cloudy - 15.7 1009.6 0.0
05/09:00am SW 13 21 - - - - 9 Cloudy - 15.8 1009.5 0.0
05/08:59am SW 13 18 - - - - 9 Partly cloudy - 15.9 1009.5 0.0
05/08:31am SW 13 21 - - - - 9 Partly cloudy - 16.4 1009.4 0.0
05/08:30am SW 13 21 - - - - 9 Partly cloudy - 16.3 1009.4 0.0
05/08:05am SW 15 21 - - - - 10 Partly cloudy - 16.2 1009.0 0.0
05/08:00am SW 14 19 - - - - 10 Partly cloudy - 16.3 1009.0 0.0
05/07:48am SW 14 20 - - - - 10 Partly cloudy - 16.8 1009.0 0.0
05/07:30am SW 15 20 - - - - 10 Partly cloudy - 16.6 1008.6 0.0
05/07:00am SW 14 21 - - - - 10 Partly cloudy - 16.7 1008.3 0.0
05/06:39am SW 14 20 - - - - 10 Partly cloudy - 16.8 1008.3 0.0
05/06:30am SW 13 20 - - - - 10 Partly cloudy - 16.8 1008.0 0.0
05/06:25am SW 11 17 - - - - 10 Partly cloudy - 16.6 1008.1 0.0
05/06:00am WSW 11 16 - - - - 10 Cloudy - 17.6 1007.8 0.0
05/05:30am W 11 17 - - - - 10 Partly cloudy - 17.7 1007.4 0.0
05/05:00am W 9 18 - - - - 10 Partly cloudy - 17.5 1007.1 0.0
05/04:31am W 15 25 - - - - 10 Partly cloudy - 18.0 1007.2 0.0
05/04:30am W 15 23 - - - - 10 Partly cloudy - 18.0 1007.1 0.0
05/04:00am WSW 13 20 - - - - 10 Partly cloudy - 18.0 1006.7 0.0
05/03:30am WSW 13 19 - - - - 10 Partly cloudy - 17.9 1006.2 0.0
05/03:00am W 13 20 - - - - 10 Cloudy - 18.1 1006.2 0.0
05/02:30am SW 8 12 - - - - 10 Partly cloudy - 17.9 1006.2 0.0
05/02:00am SW 8 11 - - - - 10 - - 18.1 1006.1 0.0
05/01:30am SW 11 17 - - - - 10 - - 18.4 1006.5 0.0
05/01:00am SW 15 22 - - - - 10 - - 18.9 1006.7 0.0
05/12:30am SW 16 24 - - - - 10 - - 19.9 1006.4 0.0
05/12:00am SW 17 25 - - - - 10 Cloudy - 22.2 1005.6 0.0
 
Date/Time
EDT
Wind Sea
Height
m
Swell Vis
km
Cloud Weather Temp
°C
Press
MSL
hPa
Rain since
9am
mm
Dir  Spd
kts
Gust
kts
Height
m
Period
s
Dir
04/11:53pm W 13 21 - - - - 10 - - 23.2 1005.0 0.0
04/11:30pm NW 10 17 - - - - 10 - - 28.3 1004.2 0.0
04/11:00pm N 10 13 - - - - 10 - - 28.2 1003.8 0.0
04/10:30pm N 10 14 - - - - 10 - - 27.9 1004.0 0.0
04/10:00pm N 11 14 - - - - 10 - - 28.0 1004.2 0.0

Other formats

Comma delimited format used in spreadsheet applications
http://www.bom.gov.au/fwo/IDV60701/IDV60701.94870.axf

JavaScript Object Notation format (JSON) in row-major order
http://www.bom.gov.au/fwo/IDV60701/IDV60701.94870.json

Data quality

Most of these data are generated automatically and are frequently updated. Quality checks on data are not normally performed. It is possible for incorrect values to appear. Refer to information at About Latest Weather Observations and please check the disclaimer before using these data.